Terminal Aerodrome Forecast
Issued by NWS

Current Version | Previous Version | Text Only | Print | Product List | Glossary On
Versions: 1 2 3 4 5 6 7 8 9 10 11 12 13 14 15 16 17 18 19
000
FTUS42 KJAX 281100
TAFVQQ
TAF
KVQQ 281121Z 2812/2912 VRB03KT P6SM FEW100
     FM281900 10006KT P6SM SCT060
     FM290100 00000KT P6SM SCT060=

USA.gov is the U.S. government's official web portal to all federal, state and local government web resources and services.